createdAt,value
2022-12-27T00:04:35.111Z,27.27
2022-12-27T00:09:41.360Z,27.23
2022-12-27T00:14:45.907Z,27.40
2022-12-27T00:19:51.390Z,27.24
2022-12-27T00:24:56.868Z,27.30
2022-12-27T00:30:01.821Z,27.81
2022-12-27T00:35:07.148Z,27.89
2022-12-27T00:40:12.873Z,27.82
2022-12-27T00:45:17.432Z,27.52
2022-12-27T00:50:22.047Z,27.14
2022-12-27T00:55:26.692Z,26.88
2022-12-27T01:00:31.832Z,27.19
2022-12-27T01:05:39.030Z,27.38
2022-12-27T01:10:44.158Z,26.52
2022-12-27T01:15:48.812Z,26.97
2022-12-27T01:20:53.517Z,26.16
2022-12-27T01:26:06.637Z,26.86
2022-12-27T01:31:16.899Z,26.75
2022-12-27T01:36:23.562Z,26.54
2022-12-27T01:41:58.191Z,26.45
2022-12-27T01:47:05.592Z,25.89
2022-12-27T01:52:13.691Z,25.50
2022-12-27T01:57:18.364Z,26.07
2022-12-27T02:02:23.684Z,26.13
2022-12-27T02:07:48.464Z,24.75
2022-12-27T02:12:54.039Z,25.05
2022-12-27T02:17:58.852Z,25.20
2022-12-27T02:24:05.343Z,24.80
2022-12-27T02:29:23.241Z,23.91
2022-12-27T02:34:42.396Z,25.26
2022-12-27T02:39:51.631Z,24.38
2022-12-27T02:45:14.954Z,24.67
2022-12-27T02:50:38.818Z,24.48
2022-12-27T02:56:21.536Z,24.26
2022-12-27T03:01:53.663Z,24.46
2022-12-27T03:07:17.016Z,23.57
2022-12-27T03:13:01.545Z,23.64
2022-12-27T03:18:14.953Z,24.22
2022-12-27T03:23:38.700Z,24.03
2022-12-27T03:29:04.633Z,24.30
2022-12-27T03:34:33.003Z,23.84
2022-12-27T03:39:44.796Z,23.56
2022-12-27T03:44:50.431Z,23.74
2022-12-27T03:50:23.233Z,23.97
2022-12-27T03:55:33.168Z,23.88
2022-12-27T04:00:39.127Z,23.79
2022-12-27T04:05:43.975Z,23.13
2022-12-27T04:11:06.951Z,23.47
2022-12-27T04:16:30.023Z,23.48
2022-12-27T04:21:53.114Z,24.21
2022-12-27T04:27:15.965Z,22.50
2022-12-27T04:32:38.921Z,23.34
2022-12-27T04:37:44.006Z,23.59
2022-12-27T04:43:07.612Z,23.08
2022-12-27T04:48:34.823Z,22.90
2022-12-27T04:53:58.948Z,24.38
2022-12-27T04:59:22.968Z,22.98
2022-12-27T05:04:28.745Z,23.08
2022-12-27T05:09:52.999Z,22.68
2022-12-27T05:14:58.184Z,22.36
2022-12-27T05:20:03.406Z,23.06
2022-12-27T05:25:28.102Z,22.43
2022-12-27T05:30:39.123Z,23.16
2022-12-27T05:35:44.650Z,23.00
2022-12-27T05:40:50.114Z,22.35
2022-12-27T05:45:56.165Z,22.89
2022-12-27T05:51:06.153Z,23.29
2022-12-27T05:56:15.386Z,22.64
2022-12-27T06:01:21.786Z,22.62
2022-12-27T06:06:27.252Z,22.59
2022-12-27T06:11:32.587Z,23.13
2022-12-27T06:16:37.571Z,22.52
2022-12-27T06:21:42.989Z,23.34
2022-12-27T06:26:49.217Z,23.76
2022-12-27T06:31:54.861Z,22.91
2022-12-27T06:37:01.234Z,22.74
2022-12-27T06:42:06.322Z,22.97
2022-12-27T06:47:11.227Z,23.39
2022-12-27T06:52:17.004Z,22.39
2022-12-27T06:57:22.316Z,22.66
2022-12-27T07:02:28.633Z,23.20
2022-12-27T07:07:33.917Z,22.84
2022-12-27T07:12:39.188Z,22.62
2022-12-27T07:17:44.119Z,23.75
2022-12-27T07:22:50.555Z,23.16
2022-12-27T07:27:57.251Z,23.73
2022-12-27T07:33:02.676Z,23.49
2022-12-27T07:38:07.342Z,23.26
2022-12-27T07:43:12.741Z,23.32
2022-12-27T07:48:18.483Z,23.06
2022-12-27T07:53:24.063Z,23.71
2022-12-27T07:58:29.647Z,23.66
2022-12-27T08:03:36.857Z,23.41
2022-12-27T08:08:45.542Z,23.89
2022-12-27T08:13:50.869Z,23.60
2022-12-27T08:18:57.285Z,24.43
2022-12-27T08:24:04.364Z,24.43
2022-12-27T08:29:09.616Z,24.24
2022-12-27T08:34:15.016Z,24.29
2022-12-27T08:39:20.642Z,24.12
2022-12-27T08:44:27.061Z,24.52
2022-12-27T08:49:32.292Z,24.49
2022-12-27T08:54:37.668Z,24.78
2022-12-27T08:59:43.073Z,25.12
2022-12-27T09:04:48.979Z,25.23
2022-12-27T09:09:54.028Z,25.27
2022-12-27T09:15:02.122Z,25.47
2022-12-27T09:20:09.620Z,25.29
2022-12-27T09:25:15.889Z,25.94
2022-12-27T09:30:21.037Z,25.36
2022-12-27T09:35:26.189Z,25.31
2022-12-27T09:40:32.128Z,25.58
2022-12-27T09:45:45.408Z,25.46
2022-12-27T09:50:57.096Z,25.72
2022-12-27T09:56:01.350Z,25.74
2022-12-27T10:01:21.349Z,26.16
2022-12-27T10:06:35.611Z,25.66
2022-12-27T10:12:13.254Z,26.07
2022-12-27T10:17:52.900Z,26.51
2022-12-27T10:23:06.880Z,26.25
2022-12-27T10:28:26.853Z,27.23
2022-12-27T10:33:35.319Z,26.34
2022-12-27T10:38:39.904Z,27.12
2022-12-27T10:43:48.315Z,27.32
2022-12-27T10:49:30.692Z,27.06
2022-12-27T10:54:36.859Z,27.09
2022-12-27T10:59:42.546Z,27.52
2022-12-27T11:05:02.618Z,27.37
2022-12-27T11:10:18.135Z,27.72
2022-12-27T11:15:23.509Z,27.18
2022-12-27T11:20:41.980Z,27.48
2022-12-27T11:25:59.812Z,27.20
2022-12-27T11:31:10.419Z,27.50
2022-12-27T11:36:25.613Z,27.19
2022-12-27T11:41:49.334Z,27.52
2022-12-27T11:47:12.097Z,26.97
2022-12-27T11:53:04.016Z,27.85
2022-12-27T11:58:43.734Z,27.66
2022-12-27T12:04:24.079Z,27.80
2022-12-27T12:09:41.201Z,27.39
2022-12-27T12:15:14.030Z,27.44
2022-12-27T12:20:34.006Z,28.55
2022-12-27T12:25:59.971Z,28.09
2022-12-27T12:31:45.870Z,29.09
2022-12-27T12:37:07.140Z,29.36
2022-12-27T12:42:23.029Z,29.31
2022-12-27T12:47:33.677Z,29.02
2022-12-27T12:53:08.073Z,29.05
2022-12-27T12:58:42.112Z,29.61
2022-12-27T13:03:52.485Z,28.94
2022-12-27T13:09:11.971Z,30.35
2022-12-27T13:14:42.283Z,29.49
2022-12-27T13:20:11.665Z,29.99
2022-12-27T13:25:54.668Z,29.81
2022-12-27T13:31:16.822Z,30.06
2022-12-27T13:36:39.996Z,31.71
2022-12-27T13:42:27.037Z,29.69
2022-12-27T13:48:22.283Z,29.67
2022-12-27T13:53:45.624Z,30.21
2022-12-27T13:59:08.035Z,30.18
2022-12-27T14:04:56.055Z,30.05
2022-12-27T14:10:31.877Z,29.83
2022-12-27T14:15:52.411Z,30.03
2022-12-27T14:21:16.678Z,30.08
2022-12-27T14:26:46.487Z,29.52
2022-12-27T14:32:11.177Z,29.12
2022-12-27T14:37:54.997Z,28.81
2022-12-27T14:43:35.804Z,29.20
2022-12-27T14:48:41.471Z,29.60
2022-12-27T14:53:52.722Z,29.51
2022-12-27T14:59:24.040Z,30.57
2022-12-27T15:04:44.447Z,30.66
2022-12-27T15:10:12.524Z,30.67
2022-12-27T15:15:21.398Z,29.79
2022-12-27T15:20:38.209Z,30.39
2022-12-27T15:25:56.792Z,29.60
2022-12-27T15:31:19.329Z,30.12
2022-12-27T15:36:38.152Z,29.25
2022-12-27T15:42:10.778Z,29.89
2022-12-27T15:47:38.505Z,29.42
2022-12-27T15:52:58.841Z,29.86
2022-12-27T15:58:23.817Z,30.52
2022-12-27T16:03:36.514Z,30.07
2022-12-27T16:08:42.825Z,30.48
2022-12-27T16:13:50.989Z,30.93
2022-12-27T16:19:17.662Z,31.11
2022-12-27T16:24:27.948Z,31.75
2022-12-27T16:29:38.313Z,30.91
2022-12-27T16:34:46.216Z,31.66
2022-12-27T16:39:50.968Z,31.16
2022-12-27T16:45:06.840Z,31.64
2022-12-27T16:50:29.340Z,31.66
2022-12-27T16:55:49.343Z,30.44
2022-12-27T17:00:56.533Z,31.99
2022-12-27T17:06:31.399Z,31.15
2022-12-27T17:11:30.505Z,30.97
2022-12-27T17:16:44.403Z,30.87
2022-12-27T17:21:56.863Z,31.47
2022-12-27T17:27:20.069Z,31.39
2022-12-27T17:32:48.865Z,31.13
2022-12-27T17:38:03.165Z,30.44
2022-12-27T17:43:56.066Z,30.70
2022-12-27T17:49:00.819Z,31.38
2022-12-27T17:54:45.101Z,32.31
2022-12-27T17:59:52.031Z,33.31
2022-12-27T18:04:58.654Z,31.48
2022-12-27T18:10:26.446Z,31.54
2022-12-27T18:15:35.388Z,32.52
2022-12-27T18:20:41.994Z,31.75
2022-12-27T18:25:46.540Z,31.77
2022-12-27T18:31:21.737Z,30.62
2022-12-27T18:36:32.055Z,31.92
2022-12-27T18:41:55.045Z,31.80
2022-12-27T18:47:03.373Z,32.64
2022-12-27T18:52:32.450Z,32.03
2022-12-27T18:57:37.555Z,31.95
2022-12-27T19:02:42.128Z,31.82
2022-12-27T19:08:07.876Z,31.39
2022-12-27T19:13:25.030Z,30.30
2022-12-27T19:18:39.418Z,31.15
2022-12-27T19:23:50.301Z,31.10
2022-12-27T19:29:09.490Z,30.09
2022-12-27T19:34:20.074Z,31.27
2022-12-27T19:39:37.538Z,32.90
2022-12-27T19:44:42.610Z,32.59
2022-12-27T19:49:47.184Z,32.76
2022-12-27T19:54:54.470Z,33.22
2022-12-27T19:59:59.612Z,32.30
2022-12-27T20:05:04.820Z,32.42
2022-12-27T20:10:14.362Z,32.52
2022-12-27T20:15:19.217Z,33.25
2022-12-27T20:20:24.706Z,32.34
2022-12-27T20:25:29.508Z,31.97
2022-12-27T20:30:35.644Z,32.07
2022-12-27T20:35:40.549Z,32.80
2022-12-27T20:40:46.497Z,32.16
2022-12-27T20:45:52.847Z,32.06
2022-12-27T20:50:58.457Z,31.07
2022-12-27T20:56:03.781Z,31.58
2022-12-27T21:01:11.603Z,32.49
2022-12-27T21:06:22.501Z,33.22
2022-12-27T21:11:32.304Z,32.27
2022-12-27T21:16:37.692Z,32.36
2022-12-27T21:21:43.113Z,31.73
2022-12-27T21:26:56.258Z,32.65
2022-12-27T21:32:02.717Z,31.97
2022-12-27T21:37:13.010Z,31.18
2022-12-27T21:42:19.384Z,31.78
2022-12-27T21:47:24.597Z,30.94
2022-12-27T21:52:30.158Z,30.17
2022-12-27T21:57:35.199Z,31.57
2022-12-27T22:02:40.407Z,30.33
2022-12-27T22:07:45.501Z,31.10
2022-12-27T22:12:50.542Z,30.33
2022-12-27T22:17:56.477Z,31.95
2022-12-27T22:23:01.540Z,30.97
2022-12-27T22:28:06.557Z,30.68
2022-12-27T22:33:11.724Z,30.13
2022-12-27T22:38:16.924Z,30.06
2022-12-27T22:43:21.990Z,30.84
2022-12-27T22:48:28.054Z,30.37
2022-12-27T22:53:33.065Z,29.67
2022-12-27T22:58:38.933Z,30.22
2022-12-27T23:03:44.985Z,30.00
2022-12-27T23:08:50.498Z,30.42
2022-12-27T23:14:04.304Z,30.26
2022-12-27T23:19:09.949Z,30.85
2022-12-27T23:24:16.874Z,31.17
2022-12-27T23:29:22.048Z,30.95
2022-12-27T23:34:29.369Z,31.31
2022-12-27T23:39:35.536Z,30.89
2022-12-27T23:44:40.656Z,30.37
2022-12-27T23:49:46.742Z,30.59
2022-12-27T23:54:51.836Z,30.28
2022-12-27T23:59:56.938Z,30.86
